sensor_id;sensor_type;location;lat;lon;timestamp;P1;durP1;ratioP1;P2;durP2;ratioP2
31182;SDS011;17813;0.000;0.000;2024-03-02T00:00:56;30.57;;;23.23;;
31182;SDS011;17813;0.000;0.000;2024-03-02T00:03:23;31.00;;;23.67;;
31182;SDS011;17813;0.000;0.000;2024-03-02T00:05:53;33.93;;;24.53;;
31182;SDS011;17813;0.000;0.000;2024-03-02T00:08:24;40.53;;;29.00;;
31182;SDS011;17813;0.000;0.000;2024-03-02T00:10:51;47.90;;;33.20;;
31182;SDS011;17813;0.000;0.000;2024-03-02T00:13:23;40.47;;;27.97;;
31182;SDS011;17813;0.000;0.000;2024-03-02T00:15:53;36.47;;;26.37;;
31182;SDS011;17813;0.000;0.000;2024-03-02T00:18:27;32.47;;;24.33;;
31182;SDS011;17813;0.000;0.000;2024-03-02T00:20:59;31.70;;;23.83;;
31182;SDS011;17813;0.000;0.000;2024-03-02T00:23:30;30.47;;;22.90;;
31182;SDS011;17813;0.000;0.000;2024-03-02T00:25:59;29.53;;;22.20;;
31182;SDS011;17813;0.000;0.000;2024-03-02T00:28:35;28.70;;;21.97;;
31182;SDS011;17813;0.000;0.000;2024-03-02T00:31:08;28.77;;;21.30;;
31182;SDS011;17813;0.000;0.000;2024-03-02T00:33:58;26.17;;;20.00;;
31182;SDS011;17813;0.000;0.000;2024-03-02T00:36:30;25.67;;;20.07;;
31182;SDS011;17813;0.000;0.000;2024-03-02T00:38:57;24.90;;;19.23;;
31182;SDS011;17813;0.000;0.000;2024-03-02T00:41:27;27.87;;;20.93;;
31182;SDS011;17813;0.000;0.000;2024-03-02T00:46:29;30.23;;;23.47;;
31182;SDS011;17813;0.000;0.000;2024-03-02T00:49:01;27.80;;;20.97;;
31182;SDS011;17813;0.000;0.000;2024-03-02T00:51:38;30.23;;;21.67;;
31182;SDS011;17813;0.000;0.000;2024-03-02T00:54:07;31.17;;;21.73;;
31182;SDS011;17813;0.000;0.000;2024-03-02T00:56:37;30.33;;;21.80;;
31182;SDS011;17813;0.000;0.000;2024-03-02T00:59:07;28.47;;;21.17;;
31182;SDS011;17813;0.000;0.000;2024-03-02T01:01:37;27.50;;;20.43;;
31182;SDS011;17813;0.000;0.000;2024-03-02T01:04:09;26.57;;;19.77;;
31182;SDS011;17813;0.000;0.000;2024-03-02T01:06:38;27.63;;;19.30;;
31182;SDS011;17813;0.000;0.000;2024-03-02T01:09:06;24.77;;;18.63;;
31182;SDS011;17813;0.000;0.000;2024-03-02T01:11:41;23.00;;;18.00;;
31182;SDS011;17813;0.000;0.000;2024-03-02T01:14:12;23.77;;;18.07;;
31182;SDS011;17813;0.000;0.000;2024-03-02T01:16:39;20.73;;;16.97;;
31182;SDS011;17813;0.000;0.000;2024-03-02T01:19:07;23.93;;;17.70;;
31182;SDS011;17813;0.000;0.000;2024-03-02T01:21:38;23.90;;;17.83;;
31182;SDS011;17813;0.000;0.000;2024-03-02T01:24:05;27.20;;;19.23;;
31182;SDS011;17813;0.000;0.000;2024-03-02T01:26:32;27.87;;;19.13;;
31182;SDS011;17813;0.000;0.000;2024-03-02T01:28:59;30.27;;;19.67;;
31182;SDS011;17813;0.000;0.000;2024-03-02T01:31:27;24.87;;;18.70;;
31182;SDS011;17813;0.000;0.000;2024-03-02T01:33:56;22.33;;;17.30;;
31182;SDS011;17813;0.000;0.000;2024-03-02T01:36:24;21.43;;;16.50;;
31182;SDS011;17813;0.000;0.000;2024-03-02T01:38:52;22.07;;;16.33;;
31182;SDS011;17813;0.000;0.000;2024-03-02T01:44:44;21.20;;;15.90;;
31182;SDS011;17813;0.000;0.000;2024-03-02T01:47:11;22.97;;;17.63;;
31182;SDS011;17813;0.000;0.000;2024-03-02T01:49:39;23.07;;;17.40;;
31182;SDS011;17813;0.000;0.000;2024-03-02T01:52:07;22.40;;;17.10;;
31182;SDS011;17813;0.000;0.000;2024-03-02T01:54:34;23.77;;;17.63;;
31182;SDS011;17813;0.000;0.000;2024-03-02T01:57:02;21.57;;;16.60;;
31182;SDS011;17813;0.000;0.000;2024-03-02T01:59:30;22.90;;;16.80;;
31182;SDS011;17813;0.000;0.000;2024-03-02T02:02:01;21.30;;;16.13;;
31182;SDS011;17813;0.000;0.000;2024-03-02T02:04:29;21.63;;;16.07;;
31182;SDS011;17813;0.000;0.000;2024-03-02T02:06:56;18.67;;;15.07;;
31182;SDS011;17813;0.000;0.000;2024-03-02T02:09:23;19.53;;;15.27;;
31182;SDS011;17813;0.000;0.000;2024-03-02T02:11:52;20.17;;;16.10;;
31182;SDS011;17813;0.000;0.000;2024-03-02T02:14:19;20.10;;;16.20;;
31182;SDS011;17813;0.000;0.000;2024-03-02T02:16:47;22.07;;;16.23;;
31182;SDS011;17813;0.000;0.000;2024-03-02T02:19:15;20.23;;;16.07;;
31182;SDS011;17813;0.000;0.000;2024-03-02T02:21:42;21.17;;;16.93;;
31182;SDS011;17813;0.000;0.000;2024-03-02T02:24:12;22.07;;;16.43;;
31182;SDS011;17813;0.000;0.000;2024-03-02T02:26:39;21.80;;;16.37;;
31182;SDS011;17813;0.000;0.000;2024-03-02T02:29:07;21.70;;;16.33;;
31182;SDS011;17813;0.000;0.000;2024-03-02T02:31:37;22.47;;;16.93;;
31182;SDS011;17813;0.000;0.000;2024-03-02T02:34:06;20.80;;;15.60;;
31182;SDS011;17813;0.000;0.000;2024-03-02T02:36:34;20.77;;;15.53;;
31182;SDS011;17813;0.000;0.000;2024-03-02T02:39:05;20.53;;;15.67;;
31182;SDS011;17813;0.000;0.000;2024-03-02T02:41:39;19.90;;;15.57;;
31182;SDS011;17813;0.000;0.000;2024-03-02T02:44:07;19.73;;;15.53;;
31182;SDS011;17813;0.000;0.000;2024-03-02T02:46:43;20.10;;;16.03;;
31182;SDS011;17813;0.000;0.000;2024-03-02T02:49:11;20.40;;;15.53;;
31182;SDS011;17813;0.000;0.000;2024-03-02T02:51:39;19.53;;;16.03;;
31182;SDS011;17813;0.000;0.000;2024-03-02T02:54:07;20.90;;;15.87;;
31182;SDS011;17813;0.000;0.000;2024-03-02T02:56:34;23.20;;;16.10;;
31182;SDS011;17813;0.000;0.000;2024-03-02T02:59:02;22.47;;;17.20;;
31182;SDS011;17813;0.000;0.000;2024-03-02T03:01:29;23.20;;;16.87;;
31182;SDS011;17813;0.000;0.000;2024-03-02T03:03:56;20.17;;;16.03;;
31182;SDS011;17813;0.000;0.000;2024-03-02T03:06:23;19.63;;;15.03;;
31182;SDS011;17813;0.000;0.000;2024-03-02T03:08:50;22.17;;;15.73;;
31182;SDS011;17813;0.000;0.000;2024-03-02T03:11:18;20.40;;;15.50;;
31182;SDS011;17813;0.000;0.000;2024-03-02T03:13:45;20.50;;;15.47;;
31182;SDS011;17813;0.000;0.000;2024-03-02T03:16:12;20.30;;;16.20;;
31182;SDS011;17813;0.000;0.000;2024-03-02T03:18:39;24.63;;;17.87;;
31182;SDS011;17813;0.000;0.000;2024-03-02T03:21:08;19.80;;;15.27;;
31182;SDS011;17813;0.000;0.000;2024-03-02T03:23:37;20.13;;;15.40;;
31182;SDS011;17813;0.000;0.000;2024-03-02T03:26:04;19.67;;;15.43;;
31182;SDS011;17813;0.000;0.000;2024-03-02T03:28:31;18.87;;;14.60;;
31182;SDS011;17813;0.000;0.000;2024-03-02T03:30:59;19.43;;;15.13;;
31182;SDS011;17813;0.000;0.000;2024-03-02T03:33:28;20.87;;;15.83;;
31182;SDS011;17813;0.000;0.000;2024-03-02T03:35:56;22.67;;;15.23;;
31182;SDS011;17813;0.000;0.000;2024-03-02T03:38:24;20.53;;;15.10;;
31182;SDS011;17813;0.000;0.000;2024-03-02T03:40:51;19.40;;;14.63;;
31182;SDS011;17813;0.000;0.000;2024-03-02T03:43:18;21.80;;;14.37;;
31182;SDS011;17813;0.000;0.000;2024-03-02T03:45:46;18.40;;;14.63;;
31182;SDS011;17813;0.000;0.000;2024-03-02T03:48:14;20.47;;;15.10;;
31182;SDS011;17813;0.000;0.000;2024-03-02T03:50:41;18.73;;;14.13;;
31182;SDS011;17813;0.000;0.000;2024-03-02T03:53:08;19.47;;;15.67;;
31182;SDS011;17813;0.000;0.000;2024-03-02T03:55:36;22.63;;;16.37;;
31182;SDS011;17813;0.000;0.000;2024-03-02T03:58:05;22.53;;;15.83;;
31182;SDS011;17813;0.000;0.000;2024-03-02T04:00:32;20.57;;;16.20;;
31182;SDS011;17813;0.000;0.000;2024-03-02T04:02:59;22.80;;;16.23;;
31182;SDS011;17813;0.000;0.000;2024-03-02T04:05:27;22.03;;;16.97;;
31182;SDS011;17813;0.000;0.000;2024-03-02T04:07:53;23.43;;;16.60;;
31182;SDS011;17813;0.000;0.000;2024-03-02T04:10:20;21.53;;;16.97;;
31182;SDS011;17813;0.000;0.000;2024-03-02T04:12:49;22.60;;;17.67;;
31182;SDS011;17813;0.000;0.000;2024-03-02T04:15:17;21.23;;;16.50;;
31182;SDS011;17813;0.000;0.000;2024-03-02T04:17:46;21.80;;;16.23;;
31182;SDS011;17813;0.000;0.000;2024-03-02T04:20:13;21.47;;;16.53;;
31182;SDS011;17813;0.000;0.000;2024-03-02T04:22:40;21.63;;;16.80;;
31182;SDS011;17813;0.000;0.000;2024-03-02T04:25:08;20.83;;;16.47;;
31182;SDS011;17813;0.000;0.000;2024-03-02T04:27:35;23.30;;;17.30;;
31182;SDS011;17813;0.000;0.000;2024-03-02T04:30:04;23.87;;;17.10;;
31182;SDS011;17813;0.000;0.000;2024-03-02T04:32:33;21.97;;;16.97;;
31182;SDS011;17813;0.000;0.000;2024-03-02T04:35:02;23.70;;;16.43;;
31182;SDS011;17813;0.000;0.000;2024-03-02T04:37:31;23.57;;;16.77;;
31182;SDS011;17813;0.000;0.000;2024-03-02T04:39:59;24.20;;;17.23;;
31182;SDS011;17813;0.000;0.000;2024-03-02T04:42:28;23.00;;;18.00;;
31182;SDS011;17813;0.000;0.000;2024-03-02T04:44:57;24.57;;;17.40;;
31182;SDS011;17813;0.000;0.000;2024-03-02T04:47:25;22.50;;;17.23;;
31182;SDS011;17813;0.000;0.000;2024-03-02T04:49:52;24.67;;;18.63;;
31182;SDS011;17813;0.000;0.000;2024-03-02T04:52:19;24.70;;;19.33;;
31182;SDS011;17813;0.000;0.000;2024-03-02T04:54:46;25.20;;;19.70;;
31182;SDS011;17813;0.000;0.000;2024-03-02T04:57:32;24.10;;;18.63;;
31182;SDS011;17813;0.000;0.000;2024-03-02T05:00:00;24.23;;;18.40;;
31182;SDS011;17813;0.000;0.000;2024-03-02T05:02:28;22.50;;;16.90;;
31182;SDS011;17813;0.000;0.000;2024-03-02T05:04:55;21.20;;;16.17;;
31182;SDS011;17813;0.000;0.000;2024-03-02T05:07:23;21.13;;;15.50;;
31182;SDS011;17813;0.000;0.000;2024-03-02T05:09:50;19.47;;;15.33;;
31182;SDS011;17813;0.000;0.000;2024-03-02T05:12:18;20.90;;;15.43;;
31182;SDS011;17813;0.000;0.000;2024-03-02T05:15:03;19.50;;;15.03;;
31182;SDS011;17813;0.000;0.000;2024-03-02T05:17:31;21.87;;;16.10;;
31182;SDS011;17813;0.000;0.000;2024-03-02T05:20:00;20.83;;;15.70;;
31182;SDS011;17813;0.000;0.000;2024-03-02T05:22:26;21.27;;;16.27;;
31182;SDS011;17813;0.000;0.000;2024-03-02T05:24:54;20.80;;;16.40;;
31182;SDS011;17813;0.000;0.000;2024-03-02T05:27:23;22.17;;;16.50;;
31182;SDS011;17813;0.000;0.000;2024-03-02T05:29:50;22.53;;;17.17;;
31182;SDS011;17813;0.000;0.000;2024-03-02T05:32:17;20.83;;;16.13;;
31182;SDS011;17813;0.000;0.000;2024-03-02T05:34:43;23.13;;;17.37;;
31182;SDS011;17813;0.000;0.000;2024-03-02T05:37:12;19.73;;;15.83;;
31182;SDS011;17813;0.000;0.000;2024-03-02T05:39:39;22.27;;;17.17;;
31182;SDS011;17813;0.000;0.000;2024-03-02T05:42:06;21.67;;;17.07;;
31182;SDS011;17813;0.000;0.000;2024-03-02T05:44:34;22.60;;;17.00;;
31182;SDS011;17813;0.000;0.000;2024-03-02T05:47:08;20.80;;;15.93;;
31182;SDS011;17813;0.000;0.000;2024-03-02T05:49:36;21.50;;;15.07;;
31182;SDS011;17813;0.000;0.000;2024-03-02T05:52:06;22.80;;;16.33;;
31182;SDS011;17813;0.000;0.000;2024-03-02T05:54:35;20.07;;;15.70;;
31182;SDS011;17813;0.000;0.000;2024-03-02T05:57:02;20.13;;;16.17;;
31182;SDS011;17813;0.000;0.000;2024-03-02T05:59:49;20.10;;;15.70;;
31182;SDS011;17813;0.000;0.000;2024-03-02T06:02:16;22.00;;;16.47;;
31182;SDS011;17813;0.000;0.000;2024-03-02T06:04:44;21.70;;;17.23;;
31182;SDS011;17813;0.000;0.000;2024-03-02T06:07:10;22.07;;;16.40;;
31182;SDS011;17813;0.000;0.000;2024-03-02T06:09:40;23.63;;;17.87;;
31182;SDS011;17813;0.000;0.000;2024-03-02T06:12:09;23.13;;;17.57;;
31182;SDS011;17813;0.000;0.000;2024-03-02T06:14:38;21.67;;;16.93;;
31182;SDS011;17813;0.000;0.000;2024-03-02T06:17:05;22.60;;;16.67;;
31182;SDS011;17813;0.000;0.000;2024-03-02T06:19:34;22.63;;;18.10;;
31182;SDS011;17813;0.000;0.000;2024-03-02T06:22:03;21.87;;;16.53;;
31182;SDS011;17813;0.000;0.000;2024-03-02T06:24:31;21.33;;;17.13;;
31182;SDS011;17813;0.000;0.000;2024-03-02T06:26:59;22.03;;;17.17;;
31182;SDS011;17813;0.000;0.000;2024-03-02T06:29:26;22.07;;;17.03;;
31182;SDS011;17813;0.000;0.000;2024-03-02T06:31:55;23.93;;;19.03;;
31182;SDS011;17813;0.000;0.000;2024-03-02T06:34:25;25.23;;;19.43;;
31182;SDS011;17813;0.000;0.000;2024-03-02T06:36:57;25.13;;;19.20;;
31182;SDS011;17813;0.000;0.000;2024-03-02T06:39:27;23.53;;;18.80;;
31182;SDS011;17813;0.000;0.000;2024-03-02T06:41:55;23.50;;;19.63;;
31182;SDS011;17813;0.000;0.000;2024-03-02T06:44:23;25.73;;;19.17;;
31182;SDS011;17813;0.000;0.000;2024-03-02T06:46:52;24.50;;;19.23;;
31182;SDS011;17813;0.000;0.000;2024-03-02T06:49:21;22.93;;;18.03;;
31182;SDS011;17813;0.000;0.000;2024-03-02T06:51:49;24.27;;;19.00;;
31182;SDS011;17813;0.000;0.000;2024-03-02T06:54:18;25.43;;;19.47;;
31182;SDS011;17813;0.000;0.000;2024-03-02T06:56:46;25.47;;;19.30;;
31182;SDS011;17813;0.000;0.000;2024-03-02T06:59:14;24.23;;;18.10;;
31182;SDS011;17813;0.000;0.000;2024-03-02T07:01:43;25.20;;;19.37;;
31182;SDS011;17813;0.000;0.000;2024-03-02T07:04:13;23.40;;;18.63;;
31182;SDS011;17813;0.000;0.000;2024-03-02T07:06:41;22.23;;;17.93;;
31182;SDS011;17813;0.000;0.000;2024-03-02T07:09:10;21.63;;;17.83;;
31182;SDS011;17813;0.000;0.000;2024-03-02T07:11:39;22.10;;;17.73;;
31182;SDS011;17813;0.000;0.000;2024-03-02T07:14:07;22.73;;;18.40;;
31182;SDS011;17813;0.000;0.000;2024-03-02T07:16:37;24.73;;;19.13;;
31182;SDS011;17813;0.000;0.000;2024-03-02T07:19:31;24.20;;;18.87;;
31182;SDS011;17813;0.000;0.000;2024-03-02T07:21:59;25.00;;;19.00;;
31182;SDS011;17813;0.000;0.000;2024-03-02T07:24:27;25.37;;;19.67;;
31182;SDS011;17813;0.000;0.000;2024-03-02T07:26:57;23.83;;;18.43;;
31182;SDS011;17813;0.000;0.000;2024-03-02T07:29:25;24.83;;;19.83;;
31182;SDS011;17813;0.000;0.000;2024-03-02T07:31:53;24.77;;;19.53;;
31182;SDS011;17813;0.000;0.000;2024-03-02T07:34:21;27.13;;;21.20;;
31182;SDS011;17813;0.000;0.000;2024-03-02T07:36:49;25.43;;;20.53;;
31182;SDS011;17813;0.000;0.000;2024-03-02T07:39:17;25.33;;;20.57;;
31182;SDS011;17813;0.000;0.000;2024-03-02T07:41:48;24.53;;;19.13;;
31182;SDS011;17813;0.000;0.000;2024-03-02T07:44:18;23.63;;;18.70;;
31182;SDS011;17813;0.000;0.000;2024-03-02T07:46:46;21.57;;;17.83;;
31182;SDS011;17813;0.000;0.000;2024-03-02T07:49:20;22.00;;;17.07;;
31182;SDS011;17813;0.000;0.000;2024-03-02T07:51:49;21.03;;;17.00;;
31182;SDS011;17813;0.000;0.000;2024-03-02T07:54:17;22.10;;;16.53;;
31182;SDS011;17813;0.000;0.000;2024-03-02T07:56:45;24.10;;;18.53;;
31182;SDS011;17813;0.000;0.000;2024-03-02T07:59:18;23.77;;;18.47;;
31182;SDS011;17813;0.000;0.000;2024-03-02T08:01:46;21.60;;;17.40;;
31182;SDS011;17813;0.000;0.000;2024-03-02T08:04:15;21.73;;;17.67;;
31182;SDS011;17813;0.000;0.000;2024-03-02T08:06:46;22.27;;;17.27;;
31182;SDS011;17813;0.000;0.000;2024-03-02T08:09:13;22.33;;;18.17;;
31182;SDS011;17813;0.000;0.000;2024-03-02T08:11:41;22.50;;;17.47;;
31182;SDS011;17813;0.000;0.000;2024-03-02T08:14:09;21.80;;;17.30;;
31182;SDS011;17813;0.000;0.000;2024-03-02T08:16:45;23.83;;;18.33;;
31182;SDS011;17813;0.000;0.000;2024-03-02T08:19:14;21.83;;;18.03;;
31182;SDS011;17813;0.000;0.000;2024-03-02T08:21:42;23.33;;;18.43;;
31182;SDS011;17813;0.000;0.000;2024-03-02T08:24:14;21.47;;;17.97;;
31182;SDS011;17813;0.000;0.000;2024-03-02T08:26:44;24.13;;;19.23;;
31182;SDS011;17813;0.000;0.000;2024-03-02T08:29:14;23.80;;;18.93;;
31182;SDS011;17813;0.000;0.000;2024-03-02T08:31:42;21.33;;;17.17;;
31182;SDS011;17813;0.000;0.000;2024-03-02T08:34:09;20.97;;;16.83;;
31182;SDS011;17813;0.000;0.000;2024-03-02T08:36:37;20.77;;;16.67;;
31182;SDS011;17813;0.000;0.000;2024-03-02T08:39:04;21.53;;;16.63;;
31182;SDS011;17813;0.000;0.000;2024-03-02T08:41:33;25.03;;;19.47;;
31182;SDS011;17813;0.000;0.000;2024-03-02T08:44:01;22.37;;;19.13;;
31182;SDS011;17813;0.000;0.000;2024-03-02T08:46:30;23.30;;;18.87;;
31182;SDS011;17813;0.000;0.000;2024-03-02T08:48:58;23.07;;;18.47;;
31182;SDS011;17813;0.000;0.000;2024-03-02T08:51:29;24.90;;;18.70;;
31182;SDS011;17813;0.000;0.000;2024-03-02T08:53:58;24.67;;;19.73;;
31182;SDS011;17813;0.000;0.000;2024-03-02T08:56:28;25.73;;;20.30;;
31182;SDS011;17813;0.000;0.000;2024-03-02T08:58:56;27.30;;;20.67;;
31182;SDS011;17813;0.000;0.000;2024-03-02T09:01:24;25.43;;;20.13;;
31182;SDS011;17813;0.000;0.000;2024-03-02T09:03:52;24.23;;;19.17;;
31182;SDS011;17813;0.000;0.000;2024-03-02T09:06:21;23.30;;;18.77;;
31182;SDS011;17813;0.000;0.000;2024-03-02T09:08:48;21.73;;;17.93;;
31182;SDS011;17813;0.000;0.000;2024-03-02T09:11:18;22.67;;;19.03;;
31182;SDS011;17813;0.000;0.000;2024-03-02T09:13:47;20.73;;;17.37;;
31182;SDS011;17813;0.000;0.000;2024-03-02T09:16:18;17.37;;;15.50;;
31182;SDS011;17813;0.000;0.000;2024-03-02T09:18:48;20.20;;;16.47;;
31182;SDS011;17813;0.000;0.000;2024-03-02T09:21:15;18.90;;;15.73;;
31182;SDS011;17813;0.000;0.000;2024-03-02T09:23:43;19.50;;;15.97;;
31182;SDS011;17813;0.000;0.000;2024-03-02T09:26:11;20.67;;;17.37;;
31182;SDS011;17813;0.000;0.000;2024-03-02T09:28:43;23.33;;;18.97;;
31182;SDS011;17813;0.000;0.000;2024-03-02T09:31:11;21.80;;;17.47;;
31182;SDS011;17813;0.000;0.000;2024-03-02T09:33:39;19.37;;;16.90;;
31182;SDS011;17813;0.000;0.000;2024-03-02T09:36:22;19.30;;;16.50;;
31182;SDS011;17813;0.000;0.000;2024-03-02T09:38:50;20.57;;;17.07;;
31182;SDS011;17813;0.000;0.000;2024-03-02T09:41:20;16.90;;;14.87;;
31182;SDS011;17813;0.000;0.000;2024-03-02T09:43:51;19.10;;;15.33;;
31182;SDS011;17813;0.000;0.000;2024-03-02T09:46:22;20.60;;;16.40;;
31182;SDS011;17813;0.000;0.000;2024-03-02T09:48:51;21.23;;;16.50;;
31182;SDS011;17813;0.000;0.000;2024-03-02T09:51:27;20.13;;;16.00;;
31182;SDS011;17813;0.000;0.000;2024-03-02T09:53:59;19.10;;;15.03;;
31182;SDS011;17813;0.000;0.000;2024-03-02T09:56:29;19.10;;;15.03;;
31182;SDS011;17813;0.000;0.000;2024-03-02T09:58:56;16.30;;;14.00;;
31182;SDS011;17813;0.000;0.000;2024-03-02T10:01:30;15.03;;;13.30;;
31182;SDS011;17813;0.000;0.000;2024-03-02T10:04:01;15.40;;;13.63;;
31182;SDS011;17813;0.000;0.000;2024-03-02T10:06:28;15.63;;;13.40;;
31182;SDS011;17813;0.000;0.000;2024-03-02T10:08:57;15.37;;;13.60;;
31182;SDS011;17813;0.000;0.000;2024-03-02T10:11:28;16.10;;;13.60;;
31182;SDS011;17813;0.000;0.000;2024-03-02T10:14:17;17.27;;;13.83;;
31182;SDS011;17813;0.000;0.000;2024-03-02T10:16:48;15.90;;;13.20;;
31182;SDS011;17813;0.000;0.000;2024-03-02T10:19:16;15.23;;;12.77;;
31182;SDS011;17813;0.000;0.000;2024-03-02T10:21:48;16.23;;;13.50;;
31182;SDS011;17813;0.000;0.000;2024-03-02T10:24:17;13.30;;;11.87;;
31182;SDS011;17813;0.000;0.000;2024-03-02T10:26:48;13.30;;;11.90;;
31182;SDS011;17813;0.000;0.000;2024-03-02T10:29:18;12.50;;;11.20;;
31182;SDS011;17813;0.000;0.000;2024-03-02T10:31:47;12.47;;;11.03;;
31182;SDS011;17813;0.000;0.000;2024-03-02T10:34:14;11.97;;;10.67;;
31182;SDS011;17813;0.000;0.000;2024-03-02T10:36:43;12.67;;;11.37;;
31182;SDS011;17813;0.000;0.000;2024-03-02T10:39:15;11.07;;;9.98;;
31182;SDS011;17813;0.000;0.000;2024-03-02T10:41:44;10.10;;;9.10;;
31182;SDS011;17813;0.000;0.000;2024-03-02T10:44:15;10.13;;;9.10;;
31182;SDS011;17813;0.000;0.000;2024-03-02T10:46:46;9.95;;;9.05;;
31182;SDS011;17813;0.000;0.000;2024-03-02T10:49:16;10.50;;;9.45;;
31182;SDS011;17813;0.000;0.000;2024-03-02T10:51:45;9.65;;;8.65;;
31182;SDS011;17813;0.000;0.000;2024-03-02T10:54:14;9.73;;;8.82;;
31182;SDS011;17813;0.000;0.000;2024-03-02T10:56:41;9.38;;;8.48;;
31182;SDS011;17813;0.000;0.000;2024-03-02T11:01:48;10.48;;;8.90;;
31182;SDS011;17813;0.000;0.000;2024-03-02T11:04:22;9.70;;;8.80;;
31182;SDS011;17813;0.000;0.000;2024-03-02T11:07:00;10.77;;;9.48;;
31182;SDS011;17813;0.000;0.000;2024-03-02T11:09:33;10.45;;;9.45;;
31182;SDS011;17813;0.000;0.000;2024-03-02T11:12:06;12.10;;;9.73;;
31182;SDS011;17813;0.000;0.000;2024-03-02T11:14:51;9.48;;;8.57;;
31182;SDS011;17813;0.000;0.000;2024-03-02T11:17:22;10.55;;;9.55;;
31182;SDS011;17813;0.000;0.000;2024-03-02T11:19:51;10.82;;;9.65;;
31182;SDS011;17813;0.000;0.000;2024-03-02T11:22:19;10.77;;;9.65;;
31182;SDS011;17813;0.000;0.000;2024-03-02T11:24:51;10.25;;;9.25;;
31182;SDS011;17813;0.000;0.000;2024-03-02T11:33:00;10.18;;;8.98;;
31182;SDS011;17813;0.000;0.000;2024-03-02T11:35:37;10.63;;;9.52;;
31182;SDS011;17813;0.000;0.000;2024-03-02T11:38:09;9.10;;;8.20;;
31182;SDS011;17813;0.000;0.000;2024-03-02T11:40:41;7.80;;;7.00;;
31182;SDS011;17813;0.000;0.000;2024-03-02T11:43:10;9.13;;;8.23;;
31182;SDS011;17813;0.000;0.000;2024-03-02T11:45:39;7.35;;;6.65;;
31182;SDS011;17813;0.000;0.000;2024-03-02T11:48:11;7.43;;;6.72;;
31182;SDS011;17813;0.000;0.000;2024-03-02T11:50:43;7.32;;;6.63;;
31182;SDS011;17813;0.000;0.000;2024-03-02T11:53:17;7.45;;;6.70;;
31182;SDS011;17813;0.000;0.000;2024-03-02T11:55:45;7.57;;;6.88;;
31182;SDS011;17813;0.000;0.000;2024-03-02T11:58:13;8.80;;;7.90;;
31182;SDS011;17813;0.000;0.000;2024-03-02T12:00:50;10.27;;;8.80;;
31182;SDS011;17813;0.000;0.000;2024-03-02T12:03:20;10.73;;;8.73;;
31182;SDS011;17813;0.000;0.000;2024-03-02T12:05:53;8.50;;;7.70;;
31182;SDS011;17813;0.000;0.000;2024-03-02T12:08:22;8.70;;;7.90;;
31182;SDS011;17813;0.000;0.000;2024-03-02T12:10:57;8.57;;;7.67;;
31182;SDS011;17813;0.000;0.000;2024-03-02T12:13:26;9.00;;;8.10;;
31182;SDS011;17813;0.000;0.000;2024-03-02T12:15:54;9.40;;;8.40;;
31182;SDS011;17813;0.000;0.000;2024-03-02T12:18:28;9.50;;;8.60;;
31182;SDS011;17813;0.000;0.000;2024-03-02T12:20:56;9.17;;;8.13;;
31182;SDS011;17813;0.000;0.000;2024-03-02T12:23:24;8.90;;;7.97;;
31182;SDS011;17813;0.000;0.000;2024-03-02T12:25:52;9.20;;;8.20;;
31182;SDS011;17813;0.000;0.000;2024-03-02T12:28:23;8.57;;;7.53;;
31182;SDS011;17813;0.000;0.000;2024-03-02T12:30:50;8.20;;;7.30;;
31182;SDS011;17813;0.000;0.000;2024-03-02T12:33:17;8.73;;;7.83;;
31182;SDS011;17813;0.000;0.000;2024-03-02T12:35:45;8.03;;;7.20;;
31182;SDS011;17813;0.000;0.000;2024-03-02T12:38:12;8.90;;;7.50;;
31182;SDS011;17813;0.000;0.000;2024-03-02T12:40:41;8.97;;;8.00;;
31182;SDS011;17813;0.000;0.000;2024-03-02T12:43:08;9.10;;;8.20;;
31182;SDS011;17813;0.000;0.000;2024-03-02T12:45:36;8.40;;;7.47;;
31182;SDS011;17813;0.000;0.000;2024-03-02T12:48:04;8.83;;;8.03;;
31182;SDS011;17813;0.000;0.000;2024-03-02T12:50:33;8.40;;;7.50;;
31182;SDS011;17813;0.000;0.000;2024-03-02T12:53:01;9.07;;;8.13;;
31182;SDS011;17813;0.000;0.000;2024-03-02T12:55:29;9.07;;;8.10;;
31182;SDS011;17813;0.000;0.000;2024-03-02T12:57:57;8.30;;;7.50;;
31182;SDS011;17813;0.000;0.000;2024-03-02T13:00:25;8.50;;;7.67;;
31182;SDS011;17813;0.000;0.000;2024-03-02T13:02:53;8.03;;;7.23;;
31182;SDS011;17813;0.000;0.000;2024-03-02T13:05:29;8.53;;;6.90;;
31182;SDS011;17813;0.000;0.000;2024-03-02T13:07:59;7.83;;;7.13;;
31182;SDS011;17813;0.000;0.000;2024-03-02T13:10:29;7.47;;;6.30;;
31182;SDS011;17813;0.000;0.000;2024-03-02T13:12:56;7.30;;;6.60;;
31182;SDS011;17813;0.000;0.000;2024-03-02T13:15:29;6.83;;;6.13;;
31182;SDS011;17813;0.000;0.000;2024-03-02T13:18:01;6.90;;;6.20;;
31182;SDS011;17813;0.000;0.000;2024-03-02T13:20:30;6.90;;;6.20;;
31182;SDS011;17813;0.000;0.000;2024-03-02T13:22:58;6.50;;;5.90;;
31182;SDS011;17813;0.000;0.000;2024-03-02T13:25:27;6.27;;;5.67;;
31182;SDS011;17813;0.000;0.000;2024-03-02T13:27:56;6.93;;;6.23;;
31182;SDS011;17813;0.000;0.000;2024-03-02T13:30:34;6.77;;;6.07;;
31182;SDS011;17813;0.000;0.000;2024-03-02T13:33:04;7.97;;;7.17;;
31182;SDS011;17813;0.000;0.000;2024-03-02T13:35:33;8.83;;;7.93;;
31182;SDS011;17813;0.000;0.000;2024-03-02T13:38:04;7.93;;;6.77;;
31182;SDS011;17813;0.000;0.000;2024-03-02T13:40:34;8.70;;;7.80;;
31182;SDS011;17813;0.000;0.000;2024-03-02T13:43:03;8.60;;;6.80;;
31182;SDS011;17813;0.000;0.000;2024-03-02T13:45:33;9.17;;;7.93;;
31182;SDS011;17813;0.000;0.000;2024-03-02T13:48:00;9.27;;;7.63;;
31182;SDS011;17813;0.000;0.000;2024-03-02T13:50:31;8.40;;;7.50;;
31182;SDS011;17813;0.000;0.000;2024-03-02T13:53:03;5.73;;;5.13;;
31182;SDS011;17813;0.000;0.000;2024-03-02T13:55:35;5.63;;;5.13;;
31182;SDS011;17813;0.000;0.000;2024-03-02T13:58:05;6.07;;;5.47;;
31182;SDS011;17813;0.000;0.000;2024-03-02T14:00:32;6.53;;;5.70;;
31182;SDS011;17813;0.000;0.000;2024-03-02T14:03:02;6.53;;;5.87;;
31182;SDS011;17813;0.000;0.000;2024-03-02T14:05:33;8.53;;;6.37;;
31182;SDS011;17813;0.000;0.000;2024-03-02T14:08:01;8.17;;;7.37;;
31182;SDS011;17813;0.000;0.000;2024-03-02T14:10:31;7.40;;;6.57;;
31182;SDS011;17813;0.000;0.000;2024-03-02T14:12:59;6.97;;;6.13;;
31182;SDS011;17813;0.000;0.000;2024-03-02T14:15:28;7.17;;;6.20;;
31182;SDS011;17813;0.000;0.000;2024-03-02T14:17:59;7.93;;;6.67;;
31182;SDS011;17813;0.000;0.000;2024-03-02T14:20:26;6.83;;;6.20;;
31182;SDS011;17813;0.000;0.000;2024-03-02T14:22:55;7.73;;;6.33;;
31182;SDS011;17813;0.000;0.000;2024-03-02T14:25:24;7.30;;;6.60;;
31182;SDS011;17813;0.000;0.000;2024-03-02T14:27:57;7.90;;;6.30;;
31182;SDS011;17813;0.000;0.000;2024-03-02T14:31:01;6.70;;;6.10;;
31182;SDS011;17813;0.000;0.000;2024-03-02T14:33:29;7.00;;;6.30;;
31182;SDS011;17813;0.000;0.000;2024-03-02T14:35:57;6.30;;;5.70;;
31182;SDS011;17813;0.000;0.000;2024-03-02T14:38:25;6.53;;;5.93;;
31182;SDS011;17813;0.000;0.000;2024-03-02T14:40:54;6.23;;;5.63;;
31182;SDS011;17813;0.000;0.000;2024-03-02T14:43:21;6.80;;;6.10;;
31182;SDS011;17813;0.000;0.000;2024-03-02T14:45:48;7.23;;;6.20;;
31182;SDS011;17813;0.000;0.000;2024-03-02T14:48:21;6.80;;;6.10;;
31182;SDS011;17813;0.000;0.000;2024-03-02T14:50:51;7.20;;;5.97;;
31182;SDS011;17813;0.000;0.000;2024-03-02T14:53:23;7.63;;;6.47;;
31182;SDS011;17813;0.000;0.000;2024-03-02T14:55:50;8.40;;;6.07;;
31182;SDS011;17813;0.000;0.000;2024-03-02T14:58:19;6.33;;;5.73;;
31182;SDS011;17813;0.000;0.000;2024-03-02T15:00:46;6.30;;;5.70;;
31182;SDS011;17813;0.000;0.000;2024-03-02T15:03:14;6.50;;;5.90;;
31182;SDS011;17813;0.000;0.000;2024-03-02T15:05:42;5.70;;;5.10;;
31182;SDS011;17813;0.000;0.000;2024-03-02T15:08:09;5.73;;;5.17;;